sensor_id;sensor_type;location;lat;lon;timestamp;pressure;altitude;pressure_sealevel;temperature;humidity
77263;BME280;66373;52.334;4.806;2023-09-08T00:00:34;101645.53;;;27.24;51.82
77263;BME280;66373;52.334;4.806;2023-09-08T00:03:00;101565.94;;;26.76;52.05
77263;BME280;66373;52.334;4.806;2023-09-08T00:05:28;101648.97;;;27.26;52.14
77263;BME280;66373;52.334;4.806;2023-09-08T00:07:55;101626.84;;;27.10;52.04
77263;BME280;66373;52.334;4.806;2023-09-08T00:10:23;101652.53;;;27.25;52.39
77263;BME280;66373;52.334;4.806;2023-09-08T00:12:51;101632.75;;;27.15;52.56
77263;BME280;66373;52.334;4.806;2023-09-08T00:15:18;101652.53;;;27.25;52.61
77263;BME280;66373;52.334;4.806;2023-09-08T00:17:45;101552.38;;;26.64;52.29
77263;BME280;66373;52.334;4.806;2023-09-08T00:20:13;101550.66;;;26.63;52.38
77263;BME280;66373;52.334;4.806;2023-09-08T00:22:40;101649.25;;;27.20;52.18
77263;BME280;66373;52.334;4.806;2023-09-08T00:25:08;101651.09;;;27.18;52.29
77263;BME280;66373;52.334;4.806;2023-09-08T00:27:36;101652.81;;;27.19;52.59
77263;BME280;66373;52.334;4.806;2023-09-08T00:30:05;101632.41;;;27.04;52.54
77263;BME280;66373;52.334;4.806;2023-09-08T00:32:32;101645.19;;;27.13;52.48
77263;BME280;66373;52.334;4.806;2023-09-08T00:34:59;101654.81;;;27.14;52.34
77263;BME280;66373;52.334;4.806;2023-09-08T00:37:26;101659.19;;;27.15;52.01
77263;BME280;66373;52.334;4.806;2023-09-08T00:39:54;101634.97;;;27.06;51.99
77263;BME280;66373;52.334;4.806;2023-09-08T00:42:21;101546.91;;;26.50;52.43
77263;BME280;66373;52.334;4.806;2023-09-08T00:44:49;101600.03;;;26.80;52.33
77263;BME280;66373;52.334;4.806;2023-09-08T00:47:17;101641.25;;;27.03;52.33
77263;BME280;66373;52.334;4.806;2023-09-08T00:49:44;101648.31;;;27.02;52.23
77263;BME280;66373;52.334;4.806;2023-09-08T00:52:12;101655.94;;;27.09;52.29
77263;BME280;66373;52.334;4.806;2023-09-08T00:54:39;101659.53;;;27.08;52.07
77263;BME280;66373;52.334;4.806;2023-09-08T00:57:06;101546.44;;;26.41;51.75
77263;BME280;66373;52.334;4.806;2023-09-08T00:59:35;101579.84;;;26.60;51.99
77263;BME280;66373;52.334;4.806;2023-09-08T01:02:03;101644.25;;;26.95;52.26
77263;BME280;66373;52.334;4.806;2023-09-08T01:04:31;101627.81;;;26.89;51.98
77263;BME280;66373;52.334;4.806;2023-09-08T01:06:59;101651.03;;;27.01;52.21
77263;BME280;66373;52.334;4.806;2023-09-08T01:09:27;101637.50;;;26.88;51.79
77263;BME280;66373;52.334;4.806;2023-09-08T01:11:54;101646.75;;;26.98;51.71
77263;BME280;66373;52.334;4.806;2023-09-08T01:14:27;101587.75;;;26.60;51.92
77263;BME280;66373;52.334;4.806;2023-09-08T01:16:57;101605.94;;;26.66;52.00
77263;BME280;66373;52.334;4.806;2023-09-08T01:19:26;101574.28;;;26.48;52.47
77263;BME280;66373;52.334;4.806;2023-09-08T01:22:08;101542.81;;;26.23;52.47
77263;BME280;66373;52.334;4.806;2023-09-08T01:27:33;101644.38;;;26.92;52.67
77263;BME280;66373;52.334;4.806;2023-09-08T01:30:02;101537.56;;;26.23;51.90
77263;BME280;66373;52.334;4.806;2023-09-08T01:32:32;101590.72;;;26.53;52.14
77263;BME280;66373;52.334;4.806;2023-09-08T01:34:59;101568.41;;;26.41;52.30
77263;BME280;66373;52.334;4.806;2023-09-08T01:37:26;101607.81;;;26.64;51.96
77263;BME280;66373;52.334;4.806;2023-09-08T01:39:53;101646.34;;;26.87;52.13
77263;BME280;66373;52.334;4.806;2023-09-08T01:42:20;101645.50;;;26.87;51.71
77263;BME280;66373;52.334;4.806;2023-09-08T01:44:49;101534.25;;;26.18;52.28
77263;BME280;66373;52.334;4.806;2023-09-08T01:47:16;101580.59;;;26.44;52.16
77263;BME280;66373;52.334;4.806;2023-09-08T01:49:43;101560.81;;;26.33;52.11
77263;BME280;66373;52.334;4.806;2023-09-08T01:52:10;101636.91;;;26.82;52.16
77263;BME280;66373;52.334;4.806;2023-09-08T01:54:37;101625.94;;;26.72;51.84
77263;BME280;66373;52.334;4.806;2023-09-08T01:57:04;101574.81;;;26.35;51.73
77263;BME280;66373;52.334;4.806;2023-09-08T01:59:32;101637.06;;;26.79;51.58
77263;BME280;66373;52.334;4.806;2023-09-08T02:02:00;101635.34;;;26.78;51.97
77263;BME280;66373;52.334;4.806;2023-09-08T02:04:27;101597.78;;;26.52;52.25
77263;BME280;66373;52.334;4.806;2023-09-08T02:06:54;101589.19;;;26.49;52.20
77263;BME280;66373;52.334;4.806;2023-09-08T02:09:21;101631.16;;;26.74;52.17
77263;BME280;66373;52.334;4.806;2023-09-08T02:11:48;101584.75;;;26.49;51.48
77263;BME280;66373;52.334;4.806;2023-09-08T02:14:18;101631.16;;;26.74;52.24
77263;BME280;66373;52.334;4.806;2023-09-08T02:16:45;101633.84;;;26.72;52.09
77263;BME280;66373;52.334;4.806;2023-09-08T02:19:14;101568.03;;;26.28;51.78
77263;BME280;66373;52.334;4.806;2023-09-08T02:21:42;101617.78;;;26.58;52.04
77263;BME280;66373;52.334;4.806;2023-09-08T02:24:09;101620.34;;;26.59;52.43
77263;BME280;66373;52.334;4.806;2023-09-08T02:26:37;101529.38;;;26.09;51.83
77263;BME280;66373;52.334;4.806;2023-09-08T02:29:05;101627.06;;;26.66;51.66
77263;BME280;66373;52.334;4.806;2023-09-08T02:31:33;101620.06;;;26.65;52.21
77263;BME280;66373;52.334;4.806;2023-09-08T02:34:03;101586.09;;;26.39;51.82
77263;BME280;66373;52.334;4.806;2023-09-08T02:36:33;101628.78;;;26.67;51.85
77263;BME280;66373;52.334;4.806;2023-09-08T02:39:00;101591.22;;;26.42;52.12
77263;BME280;66373;52.334;4.806;2023-09-08T02:41:27;101621.06;;;26.63;52.09
77263;BME280;66373;52.334;4.806;2023-09-08T02:43:55;101510.81;;;25.91;51.95
77263;BME280;66373;52.334;4.806;2023-09-08T02:46:22;101583.72;;;26.33;51.79
77263;BME280;66373;52.334;4.806;2023-09-08T02:48:51;101593.06;;;26.40;51.91
77263;BME280;66373;52.334;4.806;2023-09-08T02:51:18;101618.88;;;26.52;51.95
77263;BME280;66373;52.334;4.806;2023-09-08T02:53:47;101630.03;;;26.59;52.08
77263;BME280;66373;52.334;4.806;2023-09-08T02:56:15;101630.91;;;26.59;51.78
77263;BME280;66373;52.334;4.806;2023-09-08T02:58:42;101631.09;;;26.55;52.08
77263;BME280;66373;52.334;4.806;2023-09-08T03:01:10;101577.75;;;26.28;52.15
77263;BME280;66373;52.334;4.806;2023-09-08T03:03:39;101522.22;;;25.92;51.92
77263;BME280;66373;52.334;4.806;2023-09-08T03:06:06;101558.25;;;26.12;52.29
77263;BME280;66373;52.334;4.806;2023-09-08T03:08:34;101564.31;;;26.14;51.61
77263;BME280;66373;52.334;4.806;2023-09-08T03:11:05;101622.31;;;26.54;52.30
77263;BME280;66373;52.334;4.806;2023-09-08T03:13:32;101624.16;;;26.52;51.63
77263;BME280;66373;52.334;4.806;2023-09-08T03:16:04;101596.75;;;26.36;51.93
77263;BME280;66373;52.334;4.806;2023-09-08T03:18:32;101589.22;;;26.27;52.09
77263;BME280;66373;52.334;4.806;2023-09-08T03:20:59;101617.34;;;26.48;51.83
77263;BME280;66373;52.334;4.806;2023-09-08T03:23:29;101605.34;;;26.41;51.99
77263;BME280;66373;52.334;4.806;2023-09-08T03:25:56;101604.22;;;26.47;51.87
77263;BME280;66373;52.334;4.806;2023-09-08T03:28:26;101599.41;;;26.36;51.92
77263;BME280;66373;52.334;4.806;2023-09-08T03:30:53;101594.13;;;26.36;51.77
77263;BME280;66373;52.334;4.806;2023-09-08T03:33:20;101587.28;;;26.32;52.28
77263;BME280;66373;52.334;4.806;2023-09-08T03:35:48;101593.19;;;26.37;52.22
77263;BME280;66373;52.334;4.806;2023-09-08T03:38:15;101468.84;;;25.66;52.24
77263;BME280;66373;52.334;4.806;2023-09-08T03:40:42;101593.34;;;26.34;51.90
77263;BME280;66373;52.334;4.806;2023-09-08T03:43:09;101544.59;;;26.02;51.94
77263;BME280;66373;52.334;4.806;2023-09-08T03:45:37;101601.06;;;26.39;51.67
77263;BME280;66373;52.334;4.806;2023-09-08T03:48:05;101598.47;;;26.37;51.63
77263;BME280;66373;52.334;4.806;2023-09-08T03:50:33;101604.69;;;26.36;52.09
77263;BME280;66373;52.334;4.806;2023-09-08T03:53:02;101472.63;;;25.59;51.54
77263;BME280;66373;52.334;4.806;2023-09-08T03:55:29;101542.81;;;26.02;51.78
77263;BME280;66373;52.334;4.806;2023-09-08T03:57:56;101589.13;;;26.30;51.55
77263;BME280;66373;52.334;4.806;2023-09-08T04:00:23;101546.25;;;26.04;51.94
77263;BME280;66373;52.334;4.806;2023-09-08T04:02:51;101590.00;;;26.29;51.89
77263;BME280;66373;52.334;4.806;2023-09-08T04:05:19;101590.94;;;26.28;52.25
77263;BME280;66373;52.334;4.806;2023-09-08T04:07:46;101552.63;;;25.99;51.80
77263;BME280;66373;52.334;4.806;2023-09-08T04:10:14;101596.13;;;26.29;52.13
77263;BME280;66373;52.334;4.806;2023-09-08T04:12:42;101561.16;;;26.06;52.25
77263;BME280;66373;52.334;4.806;2023-09-08T04:15:10;101518.31;;;25.80;51.59
77263;BME280;66373;52.334;4.806;2023-09-08T04:17:38;101572.22;;;26.14;52.05
77263;BME280;66373;52.334;4.806;2023-09-08T04:20:07;101596.34;;;26.25;52.13
77263;BME280;66373;52.334;4.806;2023-09-08T04:22:35;101593.69;;;26.25;52.17
77263;BME280;66373;52.334;4.806;2023-09-08T04:25:02;101476.44;;;25.52;51.88
77263;BME280;66373;52.334;4.806;2023-09-08T04:27:31;101524.00;;;25.71;51.97
77263;BME280;66373;52.334;4.806;2023-09-08T04:30:02;101534.88;;;25.84;51.76
77263;BME280;66373;52.334;4.806;2023-09-08T04:32:30;101593.00;;;26.21;51.68
77263;BME280;66373;52.334;4.806;2023-09-08T04:34:59;101586.00;;;26.20;51.77
77263;BME280;66373;52.334;4.806;2023-09-08T04:37:27;101513.47;;;25.71;52.04
77263;BME280;66373;52.334;4.806;2023-09-08T04:39:56;101600.97;;;26.20;52.04
77263;BME280;66373;52.334;4.806;2023-09-08T04:42:23;101597.53;;;26.18;52.04
77263;BME280;66373;52.334;4.806;2023-09-08T04:44:51;101602.81;;;26.18;51.98
77263;BME280;66373;52.334;4.806;2023-09-08T04:47:19;101593.44;;;26.11;52.09
77263;BME280;66373;52.334;4.806;2023-09-08T04:49:48;101591.81;;;26.08;51.58
77263;BME280;66373;52.334;4.806;2023-09-08T04:52:15;101531.25;;;25.66;52.01
77263;BME280;66373;52.334;4.806;2023-09-08T04:54:46;101500.09;;;25.54;51.59
77263;BME280;66373;52.334;4.806;2023-09-08T04:57:14;101589.22;;;26.07;51.74
77263;BME280;66373;52.334;4.806;2023-09-08T04:59:44;101484.81;;;25.42;52.09
77263;BME280;66373;52.334;4.806;2023-09-08T05:02:12;101599.66;;;26.10;51.95
77263;BME280;66373;52.334;4.806;2023-09-08T05:04:39;101526.13;;;25.61;51.92
77263;BME280;66373;52.334;4.806;2023-09-08T05:07:06;101597.06;;;26.08;51.98
77263;BME280;66373;52.334;4.806;2023-09-08T05:09:33;101602.34;;;26.08;52.23
77263;BME280;66373;52.334;4.806;2023-09-08T05:12:02;101552.63;;;25.79;52.53
77263;BME280;66373;52.334;4.806;2023-09-08T05:14:29;101538.09;;;25.70;52.20
77263;BME280;66373;52.334;4.806;2023-09-08T05:16:57;101601.63;;;26.04;52.40
77263;BME280;66373;52.334;4.806;2023-09-08T05:19:27;101474.78;;;25.29;52.43
77263;BME280;66373;52.334;4.806;2023-09-08T05:21:55;101528.16;;;25.55;52.01
77263;BME280;66373;52.334;4.806;2023-09-08T05:24:22;101595.84;;;25.96;51.93
77263;BME280;66373;52.334;4.806;2023-09-08T05:26:57;101578.56;;;25.89;52.02
77263;BME280;66373;52.334;4.806;2023-09-08T05:29:26;101534.84;;;25.63;52.34
77263;BME280;66373;52.334;4.806;2023-09-08T05:31:54;101545.34;;;25.65;52.41
77263;BME280;66373;52.334;4.806;2023-09-08T05:34:21;101473.38;;;25.21;52.30
77263;BME280;66373;52.334;4.806;2023-09-08T05:36:49;101596.88;;;25.92;52.74
77263;BME280;66373;52.334;4.806;2023-09-08T05:39:16;101592.72;;;25.87;52.11
77263;BME280;66373;52.334;4.806;2023-09-08T05:41:44;101604.00;;;25.90;52.60
77263;BME280;66373;52.334;4.806;2023-09-08T05:44:12;101490.81;;;25.23;52.37
77263;BME280;66373;52.334;4.806;2023-09-08T05:46:41;101549.22;;;25.55;52.48
77263;BME280;66373;52.334;4.806;2023-09-08T05:49:08;101507.13;;;25.33;52.68
77263;BME280;66373;52.334;4.806;2023-09-08T05:51:36;101579.34;;;25.71;52.30
77263;BME280;66373;52.334;4.806;2023-09-08T05:54:04;101519.56;;;25.29;52.36
77263;BME280;66373;52.334;4.806;2023-09-08T05:56:33;101630.34;;;25.90;52.53
77263;BME280;66373;52.334;4.806;2023-09-08T05:59:03;101511.88;;;25.23;52.61
77263;BME280;66373;52.334;4.806;2023-09-08T06:01:37;101578.09;;;25.58;52.58
77263;BME280;66373;52.334;4.806;2023-09-08T06:04:11;101478.66;;;24.99;52.78
77263;BME280;66373;52.334;4.806;2023-09-08T06:06:42;101634.16;;;25.83;52.67
77263;BME280;66373;52.334;4.806;2023-09-08T06:09:10;101634.16;;;25.83;52.61
77263;BME280;66373;52.334;4.806;2023-09-08T06:11:38;101633.25;;;25.84;52.40
77263;BME280;66373;52.334;4.806;2023-09-08T06:14:05;101596.53;;;25.58;52.40
77263;BME280;66373;52.334;4.806;2023-09-08T06:16:40;101613.06;;;25.61;52.56
77263;BME280;66373;52.334;4.806;2023-09-08T06:19:15;101516.19;;;25.04;52.82
77263;BME280;66373;52.334;4.806;2023-09-08T06:21:43;101549.81;;;25.19;52.66
77263;BME280;66373;52.334;4.806;2023-09-08T06:24:12;101641.41;;;25.78;53.06
77263;BME280;66373;52.334;4.806;2023-09-08T06:26:41;101632.97;;;25.70;52.85
77263;BME280;66373;52.334;4.806;2023-09-08T06:29:08;101518.03;;;25.02;52.64
77263;BME280;66373;52.334;4.806;2023-09-08T06:31:36;101560.16;;;25.24;52.80
77263;BME280;66373;52.334;4.806;2023-09-08T06:34:03;101525.88;;;25.03;52.38
77263;BME280;66373;52.334;4.806;2023-09-08T06:36:32;101556.72;;;25.22;52.45
77263;BME280;66373;52.334;4.806;2023-09-08T06:38:59;101617.72;;;25.55;52.88
77263;BME280;66373;52.334;4.806;2023-09-08T06:41:26;101574.84;;;25.29;52.61
77263;BME280;66373;52.334;4.806;2023-09-08T06:43:57;101576.56;;;25.30;52.73
77263;BME280;66373;52.334;4.806;2023-09-08T06:46:27;101638.25;;;25.70;53.00
77263;BME280;66373;52.334;4.806;2023-09-08T06:48:54;101544.00;;;25.11;52.96
77263;BME280;66373;52.334;4.806;2023-09-08T06:51:25;101515.81;;;24.91;53.03
77263;BME280;66373;52.334;4.806;2023-09-08T06:53:57;101623.13;;;25.52;52.86
77263;BME280;66373;52.334;4.806;2023-09-08T06:56:35;101644.44;;;25.69;52.69
77263;BME280;66373;52.334;4.806;2023-09-08T06:59:06;101591.91;;;25.43;52.56
77263;BME280;66373;52.334;4.806;2023-09-08T07:01:34;101627.16;;;25.60;52.36
77263;BME280;66373;52.334;4.806;2023-09-08T07:04:01;101581.03;;;25.28;52.85
77263;BME280;66373;52.334;4.806;2023-09-08T07:06:29;101639.28;;;25.66;53.04
77263;BME280;66373;52.334;4.806;2023-09-08T07:08:58;101529.66;;;24.96;53.06
77263;BME280;66373;52.334;4.806;2023-09-08T07:11:27;101585.63;;;25.23;52.95
77263;BME280;66373;52.334;4.806;2023-09-08T07:13:59;101568.09;;;25.22;52.66
77263;BME280;66373;52.334;4.806;2023-09-08T07:16:26;101600.94;;;25.35;53.13
77263;BME280;66373;52.334;4.806;2023-09-08T07:18:53;101539.09;;;25.02;52.80
77263;BME280;66373;52.334;4.806;2023-09-08T07:21:21;101564.72;;;25.20;53.22
77263;BME280;66373;52.334;4.806;2023-09-08T07:23:48;101570.69;;;25.24;52.83
77263;BME280;66373;52.334;4.806;2023-09-08T07:26:17;101516.66;;;24.92;52.69
77263;BME280;66373;52.334;4.806;2023-09-08T07:28:45;101602.56;;;25.40;53.06
77263;BME280;66373;52.334;4.806;2023-09-08T07:31:15;101640.19;;;25.65;53.21
77263;BME280;66373;52.334;4.806;2023-09-08T07:33:45;101630.84;;;25.56;52.88
77263;BME280;66373;52.334;4.806;2023-09-08T07:36:13;101650.72;;;25.65;53.41
77263;BME280;66373;52.334;4.806;2023-09-08T07:38:41;101655.88;;;25.68;53.49
77263;BME280;66373;52.334;4.806;2023-09-08T07:41:09;101554.66;;;25.08;53.30
77263;BME280;66373;52.334;4.806;2023-09-08T07:43:39;101641.19;;;25.61;53.55
77263;BME280;66373;52.334;4.806;2023-09-08T07:46:09;101560.53;;;25.15;53.08
77263;BME280;66373;52.334;4.806;2023-09-08T07:48:36;101656.75;;;25.68;53.60
77263;BME280;66373;52.334;4.806;2023-09-08T07:51:03;101655.88;;;25.68;53.37
77263;BME280;66373;52.334;4.806;2023-09-08T07:53:31;101648.84;;;25.68;53.53
77263;BME280;66373;52.334;4.806;2023-09-08T07:55:58;101617.91;;;25.50;53.01
77263;BME280;66373;52.334;4.806;2023-09-08T07:58:27;101589.31;;;25.41;53.42
77263;BME280;66373;52.334;4.806;2023-09-08T08:01:04;101600.59;;;25.45;53.57
77263;BME280;66373;52.334;4.806;2023-09-08T08:03:33;101583.50;;;25.33;52.97
77263;BME280;66373;52.334;4.806;2023-09-08T08:06:04;101598.72;;;25.47;53.65
77263;BME280;66373;52.334;4.806;2023-09-08T08:08:31;101642.59;;;25.71;53.60
77263;BME280;66373;52.334;4.806;2023-09-08T08:11:14;101518.16;;;24.99;53.09
77263;BME280;66373;52.334;4.806;2023-09-08T08:13:42;101644.22;;;25.74;53.49
77263;BME280;66373;52.334;4.806;2023-09-08T08:16:12;101645.06;;;25.74;53.28
77263;BME280;66373;52.334;4.806;2023-09-08T08:18:40;101650.28;;;25.76;53.64
77263;BME280;66373;52.334;4.806;2023-09-08T08:21:08;101646.66;;;25.78;53.72
77263;BME280;66373;52.334;4.806;2023-09-08T08:23:35;101522.38;;;25.03;53.18
77263;BME280;66373;52.334;4.806;2023-09-08T08:26:04;101638.88;;;25.75;53.76
77263;BME280;66373;52.334;4.806;2023-09-08T08:28:36;101630.97;;;25.75;53.36
77263;BME280;66373;52.334;4.806;2023-09-08T08:31:06;101637.97;;;25.76;53.73
77263;BME280;66373;52.334;4.806;2023-09-08T08:33:36;101574.50;;;25.39;53.49
77263;BME280;66373;52.334;4.806;2023-09-08T08:36:06;101582.41;;;25.39;53.50
77263;BME280;66373;52.334;4.806;2023-09-08T08:38:35;101536.66;;;25.19;53.47
77263;BME280;66373;52.334;4.806;2023-09-08T08:41:03;101617.84;;;25.74;54.02
77263;BME280;66373;52.334;4.806;2023-09-08T08:43:32;101565.91;;;25.33;53.58
77263;BME280;66373;52.334;4.806;2023-09-08T08:46:00;101602.03;;;25.52;53.97
77263;BME280;66373;52.334;4.806;2023-09-08T08:48:29;101596.59;;;25.56;54.00
77263;BME280;66373;52.334;4.806;2023-09-08T08:50:59;101606.78;;;25.65;53.69
77263;BME280;66373;52.334;4.806;2023-09-08T08:53:27;101583.88;;;25.46;53.66
77263;BME280;66373;52.334;4.806;2023-09-08T08:55:56;101653.03;;;25.94;53.57
77263;BME280;66373;52.334;4.806;2023-09-08T08:58:26;101663.59;;;25.94;53.81
77263;BME280;66373;52.334;4.806;2023-09-08T09:00:54;101589.00;;;25.49;54.01
77263;BME280;66373;52.334;4.806;2023-09-08T09:03:25;101559.38;;;25.44;53.66
77263;BME280;66373;52.334;4.806;2023-09-08T09:05:56;101616.03;;;25.76;53.97
77263;BME280;66373;52.334;4.806;2023-09-08T09:08:28;101653.69;;;25.99;54.25
77263;BME280;66373;52.334;4.806;2023-09-08T09:10:55;101647.44;;;26.02;54.25
77263;BME280;66373;52.334;4.806;2023-09-08T09:13:22;101628.53;;;25.92;54.11
77263;BME280;66373;52.334;4.806;2023-09-08T09:15:50;101640.72;;;25.95;54.02
77263;BME280;66373;52.334;4.806;2023-09-08T09:18:17;101666.25;;;26.15;53.82
77263;BME280;66373;52.334;4.806;2023-09-08T09:20:54;101585.00;;;25.60;53.88
77263;BME280;66373;52.334;4.806;2023-09-08T09:23:33;101556.72;;;25.44;53.77
77263;BME280;66373;52.334;4.806;2023-09-08T09:26:01;101666.00;;;26.21;53.70
77263;BME280;66373;52.334;4.806;2023-09-08T09:28:29;101633.38;;;26.01;54.18
77263;BME280;66373;52.334;4.806;2023-09-08T09:30:57;101675.34;;;26.28;53.84
77263;BME280;66373;52.334;4.806;2023-09-08T09:33:24;101598.47;;;25.96;54.13
77263;BME280;66373;52.334;4.806;2023-09-08T09:35:56;101669.72;;;26.37;53.52
77263;BME280;66373;52.334;4.806;2023-09-08T09:38:26;101562.44;;;25.75;54.14
77263;BME280;66373;52.334;4.806;2023-09-08T09:40:55;101664.44;;;26.37;53.84
77263;BME280;66373;52.334;4.806;2023-09-08T09:43:23;101649.13;;;26.45;54.14
77263;BME280;66373;52.334;4.806;2023-09-08T09:45:51;101650.00;;;26.46;53.99
77263;BME280;66373;52.334;4.806;2023-09-08T09:48:19;101640.69;;;26.37;54.31
77263;BME280;66373;52.334;4.806;2023-09-08T09:50:46;101585.81;;;26.04;54.22
77263;BME280;66373;52.334;4.806;2023-09-08T09:53:15;101608.44;;;26.30;54.25
77263;BME280;66373;52.334;4.806;2023-09-08T09:55:44;101652.13;;;26.56;54.18
77263;BME280;66373;52.334;4.806;2023-09-08T09:58:13;101654.78;;;26.56;54.35
77263;BME280;66373;52.334;4.806;2023-09-08T10:00:41;101535.47;;;25.90;54.44
77263;BME280;66373;52.334;4.806;2023-09-08T10:03:13;101610.34;;;26.47;54.43
77263;BME280;66373;52.334;4.806;2023-09-08T10:05:40;101640.25;;;26.66;53.99
77263;BME280;66373;52.334;4.806;2023-09-08T10:08:07;101522.88;;;25.97;54.33
77263;BME280;66373;52.334;4.806;2023-09-08T10:10:36;101637.34;;;26.73;54.28
77263;BME280;66373;52.334;4.806;2023-09-08T10:13:06;101630.50;;;26.68;54.16
77263;BME280;66373;52.334;4.806;2023-09-08T10:15:36;101630.97;;;26.77;54.14
77263;BME280;66373;52.334;4.806;2023-09-08T10:18:05;101631.78;;;26.79;54.41
77263;BME280;66373;52.334;4.806;2023-09-08T10:20:33;101541.97;;;26.22;54.40
77263;BME280;66373;52.334;4.806;2023-09-08T10:23:07;101646.03;;;26.95;54.85
77263;BME280;66373;52.334;4.806;2023-09-08T10:25:39;101629.28;;;26.96;54.47
77263;BME280;66373;52.334;4.806;2023-09-08T10:28:36;101647.31;;;27.05;54.52
77263;BME280;66373;52.334;4.806;2023-09-08T10:31:05;101629.50;;;26.90;54.59
77263;BME280;66373;52.334;4.806;2023-09-08T10:33:34;101577.00;;;26.65;54.43
77263;BME280;66373;52.334;4.806;2023-09-08T10:36:03;101651.25;;;27.15;54.65
77263;BME280;66373;52.334;4.806;2023-09-08T10:38:32;101605.69;;;26.91;54.74
77263;BME280;66373;52.334;4.806;2023-09-08T10:41:27;101624.63;;;27.01;54.38
77263;BME280;66373;52.334;4.806;2023-09-08T10:43:58;101617.84;;;27.14;54.62
77263;BME280;66373;52.334;4.806;2023-09-08T10:46:31;101545.25;;;26.66;54.63
77263;BME280;66373;52.334;4.806;2023-09-08T10:49:02;101607.69;;;27.05;54.77
77263;BME280;66373;52.334;4.806;2023-09-08T10:51:30;101650.66;;;27.46;54.75
77263;BME280;66373;52.334;4.806;2023-09-08T10:53:58;101650.72;;;27.45;54.73
77263;BME280;66373;52.334;4.806;2023-09-08T10:56:34;101654.16;;;27.47;54.76
77263;BME280;66373;52.334;4.806;2023-09-08T10:59:14;101652.16;;;27.52;54.77
77263;BME280;66373;52.334;4.806;2023-09-08T11:01:47;101658.22;;;27.54;54.83
77263;BME280;66373;52.334;4.806;2023-09-08T11:04:14;101585.28;;;27.14;55.08
77263;BME280;66373;52.334;4.806;2023-09-08T11:06:44;101653.88;;;27.53;55.09
77263;BME280;66373;52.334;4.806;2023-09-08T11:09:11;101530.47;;;26.81;55.30
77263;BME280;66373;52.334;4.806;2023-09-08T11:11:38;101654.50;;;27.58;55.10
77263;BME280;66373;52.334;4.806;2023-09-08T11:14:05;101536.97;;;26.93;55.04
77263;BME280;66373;52.334;4.806;2023-09-08T11:16:33;101603.53;;;27.37;55.14
77263;BME280;66373;52.334;4.806;2023-09-08T11:19:13;101603.09;;;27.46;55.12
77263;BME280;66373;52.334;4.806;2023-09-08T11:21:41;101655.19;;;27.80;54.90
77263;BME280;66373;52.334;4.806;2023-09-08T11:24:08;101559.31;;;27.23;54.82
77263;BME280;66373;52.334;4.806;2023-09-08T11:26:37;101610.63;;;27.73;54.53
77263;BME280;66373;52.334;4.806;2023-09-08T11:29:05;101559.47;;;27.37;54.69
77263;BME280;66373;52.334;4.806;2023-09-08T11:31:32;101623.00;;;27.72;55.12
77263;BME280;66373;52.334;4.806;2023-09-08T11:34:00;101565.09;;;27.49;54.85
77263;BME280;66373;52.334;4.806;2023-09-08T11:36:29;101560.81;;;27.46;54.89
77263;BME280;66373;52.334;4.806;2023-09-08T11:38:56;101606.97;;;27.75;55.25
77263;BME280;66373;52.334;4.806;2023-09-08T11:41:23;101605.34;;;27.73;54.93
77263;BME280;66373;52.334;4.806;2023-09-08T11:43:51;101652.72;;;28.12;55.19
77263;BME280;66373;52.334;4.806;2023-09-08T11:46:18;101653.50;;;28.14;55.20
77263;BME280;66373;52.334;4.806;2023-09-08T11:48:46;101651.34;;;28.22;54.80
77263;BME280;66373;52.334;4.806;2023-09-08T11:51:13;101560.78;;;27.65;54.71
77263;BME280;66373;52.334;4.806;2023-09-08T11:53:42;101624.31;;;28.15;54.26
77263;BME280;66373;52.334;4.806;2023-09-08T11:56:10;101525.22;;;27.53;54.62
77263;BME280;66373;52.334;4.806;2023-09-08T11:58:39;101628.47;;;28.21;54.79
77263;BME280;66373;52.334;4.806;2023-09-08T12:01:07;101640.47;;;28.28;54.22
77263;BME280;66373;52.334;4.806;2023-09-08T12:03:52;101609.28;;;28.16;54.35
77263;BME280;66373;52.334;4.806;2023-09-08T12:06:24;101616.09;;;28.21;54.59
77263;BME280;66373;52.334;4.806;2023-09-08T12:08:53;101529.38;;;27.76;54.34
77263;BME280;66373;52.334;4.806;2023-09-08T12:11:20;101644.00;;;28.44;53.95
77263;BME280;66373;52.334;4.806;2023-09-08T12:13:47;101561.09;;;27.93;54.43
77263;BME280;66373;52.334;4.806;2023-09-08T12:16:18;101624.53;;;28.45;54.36
77263;BME280;66373;52.334;4.806;2023-09-08T12:18:46;101621.75;;;28.48;54.12
77263;BME280;66373;52.334;4.806;2023-09-08T12:21:14;101589.09;;;28.32;53.94
77263;BME280;66373;52.334;4.806;2023-09-08T12:23:48;101544.25;;;28.12;53.93
77263;BME280;66373;52.334;4.806;2023-09-08T12:26:17;101539.31;;;28.06;54.14
77263;BME280;66373;52.334;4.806;2023-09-08T12:28:46;101551.00;;;28.17;53.62
77263;BME280;66373;52.334;4.806;2023-09-08T12:31:14;101595.59;;;28.42;53.52
77263;BME280;66373;52.334;4.806;2023-09-08T12:33:43;101567.22;;;28.28;54.19
77263;BME280;66373;52.334;4.806;2023-09-08T12:36:13;101576.78;;;28.31;54.27
77263;BME280;66373;52.334;4.806;2023-09-08T12:38:46;101528.53;;;28.09;53.88
77263;BME280;66373;52.334;4.806;2023-09-08T12:41:14;101512.66;;;28.09;54.22
77263;BME280;66373;52.334;4.806;2023-09-08T12:43:45;101586.06;;;28.55;53.38
77263;BME280;66373;52.334;4.806;2023-09-08T12:46:12;101599.41;;;28.69;54.00
77263;BME280;66373;52.334;4.806;2023-09-08T12:48:39;101567.09;;;28.47;52.22
77263;BME280;66373;52.334;4.806;2023-09-08T12:51:07;101578.56;;;28.63;53.24
77263;BME280;66373;52.334;4.806;2023-09-08T12:53:34;101585.72;;;28.61;52.83
77263;BME280;66373;52.334;4.806;2023-09-08T12:56:02;101576.06;;;28.60;52.58
77263;BME280;66373;52.334;4.806;2023-09-08T12:58:29;101512.06;;;28.21;52.51
77263;BME280;66373;52.334;4.806;2023-09-08T13:00:59;101517.88;;;28.27;53.59